Time;durP1;ratioP1;P1;durP2;ratioP2;P2;SDS_P1;SDS_P2;PMS_P1;PMS_P2;Temp;Humidity;BMP_temperature;BMP_pressure;BME280_temperature;BME280_humidity;BME280_pressure;Samples;Min_cycle;Max_cycle;Signal;HPM_P1;HPM_P2
2023/05/11 00:00:02;;;;;;;;;;;;;;;14.78;100.00;-18425.44;4970555;28;19957;-79
2023/05/11 00:02:27;;;;;;;;;;;;;;;14.87;100.00;-18427.91;4963299;28;19941;-78
2023/05/11 00:04:53;;;;;;;;;;;;;;;14.78;100.00;-18425.44;4973731;28;19921;-78
2023/05/11 00:07:18;;;;;;;;;;;;;;;14.93;100.00;-18429.53;4972536;28;19918;-78
2023/05/11 00:09:43;;;;;;;;;;;;;;;14.87;100.00;-18428.03;4971137;28;20546;-79
2023/05/11 00:12:08;;;;;;;;;;;;;;;14.99;100.00;-18431.03;4969382;28;19993;-79
2023/05/11 00:14:34;;;;;;;;;;;;;;;14.84;100.00;-18427.06;4970473;28;19917;-79
2023/05/11 00:16:59;;;;;;;;;;;;;;;14.82;100.00;-18426.53;4971993;28;20048;-79
2023/05/11 00:19:24;;;;;;;;;;;;;;;14.79;100.00;-18425.72;4973790;28;19929;-78
2023/05/11 00:21:49;;;;;;;;;;;;;;;14.84;100.00;-18427.22;4971226;28;19926;-79
2023/05/11 00:24:15;;;;;;;;;;;;;;;14.83;100.00;-18426.94;4970205;28;19918;-78
2023/05/11 00:26:40;;;;;;;;;;;;;;;14.80;100.00;-18425.97;4967584;28;19925;-78
2023/05/11 00:29:05;;;;;;;;;;;;;;;14.87;100.00;-18427.91;4967117;28;20365;-79
2023/05/11 00:31:31;;;;;;;;;;;;;;;14.89;100.00;-18428.44;4973168;28;19921;-78
2023/05/11 00:33:56;;;;;;;;;;;;;;;14.77;100.00;-18425.28;4969157;28;20013;-78
2023/05/11 00:36:21;;;;;;;;;;;;;;;14.84;100.00;-18427.06;4976142;28;19972;-79
2023/05/11 00:38:48;;;;;;;;;;;;;;;14.76;100.00;-18425.03;4961677;28;19923;-78
2023/05/11 00:41:14;;;;;;;;;;;;;;;14.87;100.00;-18427.91;4965508;28;19918;-78
2023/05/11 00:43:40;;;;;;;;;;;;;;;14.95;100.00;-18429.94;4989861;28;20348;-78
2023/05/11 00:46:05;;;;;;;;;;;;;;;14.76;100.00;-18425.03;4991978;28;19914;-79
2023/05/11 00:48:31;;;;;;;;;;;;;;;14.71;100.00;-18423.50;4993758;28;20004;-78
2023/05/11 00:50:58;;;;;;;;;;;;;;;14.82;100.00;-18426.53;4993745;28;20012;-78
2023/05/11 00:53:23;;;;;;;;;;;;;;;14.90;100.00;-18428.72;4988180;28;19918;-79
2023/05/11 00:55:49;;;;;;;;;;;;;;;14.83;100.00;-18426.94;4975512;28;19984;-79
2023/05/11 00:58:15;;;;;;;;;;;;;;;14.79;100.00;-18425.72;4978200;28;19945;-79
2023/05/11 01:00:40;;;;;;;;;;;;;;;14.94;100.00;-18429.81;4970853;28;19968;-78
2023/05/11 01:03:06;;;;;;;;;;;;;;;14.97;100.00;-18430.63;4975774;28;19954;-79
2023/05/11 01:05:51;;;;;;;;;;;;;;;14.85;100.00;-18427.34;4973590;28;19922;-78
2023/05/11 01:08:20;;;;;;;;;;;;;;;14.64;100.00;-18421.88;4965072;28;19926;-79
2023/05/11 01:11:02;;;;;;;;;;;;;;;14.58;100.00;-18420.22;4961704;28;19926;-79
2023/05/11 01:13:36;;;;;;;;;;;;;;;14.62;100.00;-18421.31;4970478;28;19926;-79
2023/05/11 01:16:06;;;;;;;;;;;;;;;14.67;100.00;-18422.56;4978446;28;19917;-79
2023/05/11 01:18:39;;;;;;;;;;;;;;;14.73;100.00;-18424.19;4973242;28;20317;-79
2023/05/11 01:21:05;;;;;;;;;;;;;;;14.75;100.00;-18424.59;4974378;28;19926;-79
2023/05/11 01:23:43;;;;;;;;;;;;;;;14.75;100.00;-18424.59;4974515;28;19973;-79
2023/05/11 01:26:21;;;;;;;;;;;;;;;14.84;100.00;-18427.06;4981579;28;19918;-78
2023/05/11 01:28:55;;;;;;;;;;;;;;;14.76;100.00;-18424.88;4974628;28;19922;-79
2023/05/11 01:31:20;;;;;;;;;;;;;;;14.78;100.00;-18425.44;4974400;28;19925;-79
2023/05/11 01:34:06;;;;;;;;;;;;;;;14.81;100.00;-18426.25;4974328;28;19935;-79
2023/05/11 01:36:33;;;;;;;;;;;;;;;14.80;100.00;-18426.13;4963615;28;19958;-79
2023/05/11 01:39:03;;;;;;;;;;;;;;;14.74;100.00;-18424.34;4977640;28;20339;-79
2023/05/11 01:41:30;;;;;;;;;;;;;;;14.78;100.00;-18425.44;4972478;28;20008;-79
2023/05/11 01:43:57;;;;;;;;;;;;;;;14.70;100.00;-18423.38;4975655;28;19918;-78
2023/05/11 01:46:25;;;;;;;;;;;;;;;14.59;100.00;-18420.38;4976071;28;19917;-78
2023/05/11 01:48:51;;;;;;;;;;;;;;;14.64;100.00;-18421.88;4971122;28;20541;-78
2023/05/11 01:51:18;;;;;;;;;;;;;;;14.67;100.00;-18422.56;4970262;28;19953;-79
2023/05/11 01:53:43;;;;;;;;;;;;;;;14.65;100.00;-18422.16;4969114;28;19926;-79
2023/05/11 01:56:10;;;;;;;;;;;;;;;14.56;100.00;-18419.69;4966893;28;20325;-79
2023/05/11 01:58:36;;;;;;;;;;;;;;;14.52;100.00;-18418.59;4966644;28;19917;-79
2023/05/11 02:01:02;;;;;;;;;;;;;;;14.53;100.00;-18418.88;4973422;28;19949;-79
2023/05/11 02:03:30;;;;;;;;;;;;;;;14.51;100.00;-18418.31;4975061;28;20304;-78
2023/05/11 02:05:56;;;;;;;;;;;;;;;14.48;100.00;-18417.50;4973414;28;19925;-79
2023/05/11 02:08:22;;;;;;;;;;;;;;;14.48;100.00;-18417.50;4974757;28;19918;-79
2023/05/11 02:10:49;;;;;;;;;;;;;;;14.43;100.00;-18416.13;4988564;28;19918;-78
2023/05/11 02:13:15;;;;;;;;;;;;;;;14.42;100.00;-18415.84;5005885;22;19973;-87
2023/05/11 02:15:46;;;;;;;;;;;;;;;14.29;100.00;-18412.41;5007560;28;19918;-87
2023/05/11 02:18:13;;;;;;;;;;;;;;;14.29;100.00;-18412.28;4990617;28;19918;-87
2023/05/11 02:20:40;;;;;;;;;;;;;;;14.31;100.00;-18412.84;4996292;28;19948;-87
2023/05/11 02:23:07;;;;;;;;;;;;;;;14.16;100.00;-18408.88;5001409;28;19918;-88
2023/05/11 02:25:32;;;;;;;;;;;;;;;14.19;100.00;-18409.81;4975813;28;20443;-87
2023/05/11 02:27:58;;;;;;;;;;;;;;;14.19;100.00;-18409.81;4979395;28;19953;-87
2023/05/11 02:30:24;;;;;;;;;;;;;;;14.12;100.00;-18407.75;4987777;28;20845;-87
2023/05/11 02:32:51;;;;;;;;;;;;;;;14.15;100.00;-18408.59;4985175;28;20304;-87
2023/05/11 02:35:22;;;;;;;;;;;;;;;14.15;100.00;-18408.72;4982433;28;19922;-87
2023/05/11 02:37:48;;;;;;;;;;;;;;;14.15;100.00;-18408.72;4982754;28;19984;-87
2023/05/11 02:40:18;;;;;;;;;;;;;;;14.22;100.00;-18410.63;4977842;28;19922;-87
2023/05/11 02:42:45;;;;;;;;;;;;;;;14.13;100.00;-18408.19;4982658;28;19918;-87
2023/05/11 02:45:11;;;;;;;;;;;;;;;14.15;100.00;-18408.59;4984086;28;20403;-86
2023/05/11 02:47:44;;;;;;;;;;;;;;;14.08;100.00;-18406.66;4980487;28;19921;-87
2023/05/11 02:50:11;;;;;;;;;;;;;;;14.06;100.00;-18406.13;4969075;28;19924;-86
2023/05/11 02:52:40;;;;;;;;;;;;;;;13.90;100.00;-18401.88;4980141;28;19944;-87
2023/05/11 02:55:07;;;;;;;;;;;;;;;13.88;100.00;-18401.31;4977355;28;20409;-86
2023/05/11 02:57:32;;;;;;;;;;;;;;;13.82;100.00;-18399.81;4976824;28;20005;-86
2023/05/11 02:59:58;;;;;;;;;;;;;;;13.75;100.00;-18397.91;4985112;28;20017;-87
2023/05/11 03:02:23;;;;;;;;;;;;;;;13.79;100.00;-18398.88;4980782;28;19928;-86
2023/05/11 03:04:49;;;;;;;;;;;;;;;13.63;100.00;-18394.75;4977176;28;19953;-87
2023/05/11 03:07:14;;;;;;;;;;;;;;;13.51;100.00;-18391.59;4977444;28;19924;-87
2023/05/11 03:09:39;;;;;;;;;;;;;;;13.44;100.00;-18389.56;4981823;28;19925;-87
2023/05/11 03:12:05;;;;;;;;;;;;;;;13.44;100.00;-18389.56;4974452;28;19972;-87
2023/05/11 03:14:32;;;;;;;;;;;;;;;13.44;100.00;-18389.56;4978744;28;19917;-87
2023/05/11 03:16:58;;;;;;;;;;;;;;;13.42;100.00;-18389.00;4975626;28;19925;-87
2023/05/11 03:19:25;;;;;;;;;;;;;;;13.39;100.00;-18388.19;4978869;28;19922;-87
2023/05/11 03:21:51;;;;;;;;;;;;;;;13.28;100.00;-18385.28;4984898;28;20045;-88
2023/05/11 03:24:17;;;;;;;;;;;;;;;13.18;100.00;-18382.69;5003510;28;19909;-88
2023/05/11 03:26:43;;;;;;;;;;;;;;;13.19;100.00;-18382.97;5000662;28;19910;-88
2023/05/11 03:29:08;;;;;;;;;;;;;;;13.23;100.00;-18384.06;4983271;28;20303;-87
2023/05/11 03:31:34;;;;;;;;;;;;;;;13.31;100.00;-18386.25;4973418;28;19922;-87
2023/05/11 03:33:59;;;;;;;;;;;;;;;13.39;100.00;-18388.19;4982179;28;19922;-87
2023/05/11 03:36:25;;;;;;;;;;;;;;;13.34;100.00;-18386.81;4980007;28;19929;-87
2023/05/11 03:38:52;;;;;;;;;;;;;;;13.34;100.00;-18386.94;4977523;28;19953;-87
2023/05/11 03:41:18;;;;;;;;;;;;;;;13.28;100.00;-18385.28;4975806;28;19922;-86
2023/05/11 03:43:45;;;;;;;;;;;;;;;13.30;100.00;-18385.97;4981697;28;19917;-87
2023/05/11 03:46:11;;;;;;;;;;;;;;;13.36;100.00;-18387.34;4976187;28;19921;-87
2023/05/11 03:48:37;;;;;;;;;;;;;;;13.40;100.00;-18388.44;4974944;28;20929;-87
2023/05/11 03:51:03;;;;;;;;;;;;;;;13.37;100.00;-18387.75;4965172;28;20005;-87
2023/05/11 03:53:29;;;;;;;;;;;;;;;13.27;100.00;-18385.03;4978874;28;20405;-88
2023/05/11 03:55:54;;;;;;;;;;;;;;;13.21;100.00;-18383.50;4976647;28;19979;-86
2023/05/11 03:58:20;;;;;;;;;;;;;;;13.24;100.00;-18384.34;4977125;28;20008;-88
2023/05/11 04:00:46;;;;;;;;;;;;;;;13.18;100.00;-18382.56;4979117;28;20055;-87
2023/05/11 04:03:11;;;;;;;;;;;;;;;13.19;100.00;-18382.97;4989030;28;20012;-87
2023/05/11 04:05:37;;;;;;;;;;;;;;;13.26;100.00;-18384.75;4982700;28;19917;-87
2023/05/11 04:08:03;;;;;;;;;;;;;;;13.27;100.00;-18385.03;4976916;28;19921;-87
2023/05/11 04:10:28;;;;;;;;;;;;;;;13.24;100.00;-18384.19;4983842;28;20000;-88
2023/05/11 04:12:54;;;;;;;;;;;;;;;13.25;100.00;-18384.63;4977216;28;19926;-87
2023/05/11 04:15:19;;;;;;;;;;;;;;;13.23;100.00;-18383.91;4981712;28;20599;-87
2023/05/11 04:17:44;;;;;;;;;;;;;;;13.18;100.00;-18382.69;4978284;28;20007;-87
2023/05/11 04:20:10;;;;;;;;;;;;;;;13.23;100.00;-18383.91;4986321;28;19921;-88
2023/05/11 04:22:35;;;;;;;;;;;;;;;13.26;100.00;-18384.75;4990137;28;19933;-87
2023/05/11 04:25:00;;;;;;;;;;;;;;;13.36;100.00;-18387.34;4988875;28;19968;-87
2023/05/11 04:27:26;;;;;;;;;;;;;;;13.23;100.00;-18383.91;4981142;28;19918;-86
2023/05/11 04:29:51;;;;;;;;;;;;;;;13.28;100.00;-18385.44;4983401;28;19917;-86
2023/05/11 04:32:16;;;;;;;;;;;;;;;13.19;100.00;-18382.97;4980546;28;20519;-87
2023/05/11 04:34:42;;;;;;;;;;;;;;;13.25;100.00;-18384.63;4984857;28;19928;-87
2023/05/11 04:37:07;;;;;;;;;;;;;;;13.32;100.00;-18386.53;4981273;28;19984;-87
2023/05/11 04:39:33;;;;;;;;;;;;;;;13.34;100.00;-18386.81;4982605;28;19929;-87
2023/05/11 04:41:59;;;;;;;;;;;;;;;13.43;100.00;-18389.28;4979414;28;20008;-87
2023/05/11 04:44:24;;;;;;;;;;;;;;;13.52;100.00;-18391.88;4987071;28;19945;-87
2023/05/11 04:46:52;;;;;;;;;;;;;;;13.51;100.00;-18391.47;4980061;28;20369;-87
2023/05/11 04:49:17;;;;;;;;;;;;;;;13.57;100.00;-18392.97;4982871;28;20004;-87
2023/05/11 04:51:43;;;;;;;;;;;;;;;13.45;100.00;-18389.97;4979544;28;20252;-87
2023/05/11 04:54:09;;;;;;;;;;;;;;;13.23;100.00;-18384.06;4985681;28;19959;-88
2023/05/11 04:56:39;;;;;;;;;;;;;;;13.12;100.00;-18381.03;4975597;28;19922;-87
2023/05/11 04:59:04;;;;;;;;;;;;;;;13.14;100.00;-18381.47;4974308;28;19928;-88
2023/05/11 05:01:29;;;;;;;;;;;;;;;13.13;100.00;-18381.19;4980480;28;19917;-87
2023/05/11 05:03:55;;;;;;;;;;;;;;;13.31;100.00;-18386.25;4967126;28;20004;-88
2023/05/11 05:06:20;;;;;;;;;;;;;;;13.21;100.00;-18383.50;4977362;28;20348;-87
2023/05/11 05:08:45;;;;;;;;;;;;;;;13.29;100.00;-18385.72;4978202;28;19932;-87
2023/05/11 05:11:10;;;;;;;;;;;;;;;13.28;100.00;-18385.28;4973909;28;19918;-87
2023/05/11 05:13:35;;;;;;;;;;;;;;;13.32;100.00;-18386.53;5000248;28;19926;-87
2023/05/11 05:16:01;;;;;;;;;;;;;;;13.25;100.00;-18384.47;4999849;28;19909;-88
2023/05/11 05:18:26;;;;;;;;;;;;;;;13.21;100.00;-18383.50;4994706;28;19926;-87
2023/05/11 05:20:51;;;;;;;;;;;;;;;13.10;100.00;-18380.63;4977405;28;20416;-87
2023/05/11 05:23:16;;;;;;;;;;;;;;;13.12;100.00;-18380.91;4984705;28;19917;-87
2023/05/11 05:25:42;;;;;;;;;;;;;;;13.00;100.00;-18377.88;4981704;28;19928;-87
2023/05/11 05:28:07;;;;;;;;;;;;;;;13.16;100.00;-18382.13;4980083;28;19964;-87
2023/05/11 05:30:32;;;;;;;;;;;;;;;13.20;100.00;-18383.22;4979312;28;19969;-87
2023/05/11 05:32:57;;;;;;;;;;;;;;;13.43;100.00;-18389.28;4985758;28;20004;-87
2023/05/11 05:35:23;;;;;;;;;;;;;;;13.62;100.00;-18394.34;4980003;28;19922;-86
2023/05/11 05:37:48;;;;;;;;;;;;;;;13.59;100.00;-18393.66;4980420;28;19917;-88
2023/05/11 05:40:14;;;;;;;;;;;;;;;13.79;100.00;-18399.00;4983144;28;20480;-87
2023/05/11 05:42:39;;;;;;;;;;;;;;;13.48;100.00;-18390.78;4978993;28;20347;-87
2023/05/11 05:45:04;;;;;;;;;;;;;;;13.60;100.00;-18393.94;4977917;28;19924;-87
2023/05/11 05:47:30;;;;;;;;;;;;;;;13.65;100.00;-18395.31;4975043;28;19918;-87
2023/05/11 05:49:55;;;;;;;;;;;;;;;13.62;100.00;-18394.47;4985113;28;19921;-87
2023/05/11 05:52:20;;;;;;;;;;;;;;;13.60;100.00;-18393.94;4982873;28;19969;-87
2023/05/11 05:54:45;;;;;;;;;;;;;;;13.67;100.00;-18395.84;4983089;28;20017;-87
2023/05/11 05:57:11;;;;;;;;;;;;;;;13.79;100.00;-18398.88;4984607;28;19924;-87
2023/05/11 05:59:48;;;;;;;;;;;;;;;13.85;100.00;-18400.50;4951168;28;19922;-86
2023/05/11 06:02:13;;;;;;;;;;;;;;;13.85;100.00;-18400.66;4970831;28;20056;-87
2023/05/11 06:04:38;;;;;;;;;;;;;;;13.83;100.00;-18399.97;4960672;28;20129;-89
2023/05/11 06:07:04;;;;;;;;;;;;;;;14.02;100.00;-18405.16;4965726;28;19926;-88
2023/05/11 06:09:29;;;;;;;;;;;;;;;14.02;100.00;-18405.16;4951022;28;19918;-87
2023/05/11 06:11:54;;;;;;;;;;;;;;;14.15;100.00;-18408.59;4960391;28;19936;-88
2023/05/11 06:14:21;;;;;;;;;;;;;;;14.06;100.00;-18406.25;4977567;28;19922;-87
2023/05/11 06:16:46;;;;;;;;;;;;;;;14.02;100.00;-18405.16;4967659;28;19976;-87
2023/05/11 06:19:35;;;;;;;;;;;;;;;14.02;100.00;-18405.16;4957082;28;19993;-88
2023/05/11 06:22:04;;;;;;;;;;;;;;;14.07;100.00;-18406.53;4964035;28;19922;-87
2023/05/11 06:24:29;;;;;;;;;;;;;;;14.11;100.00;-18407.63;4972035;28;19918;-88
2023/05/11 06:26:54;;;;;;;;;;;;;;;13.73;100.00;-18397.50;4961273;28;19973;-88
2023/05/11 06:29:21;;;;;;;;;;;;;;;13.73;100.00;-18397.34;4967016;28;19946;-86
2023/05/11 06:31:51;;;;;;;;;;;;;;;13.74;100.00;-18397.63;4986062;28;19956;-85
2023/05/11 06:34:16;;;;;;;;;;;;;;;13.69;100.00;-18396.41;4980159;28;20004;-85
2023/05/11 06:36:41;;;;;;;;;;;;;;;13.83;100.00;-18399.97;4984114;28;20008;-87
2023/05/11 06:39:07;;;;;;;;;;;;;;;13.82;100.00;-18399.69;4989045;28;19913;-85
2023/05/11 06:41:32;;;;;;;;;;;;;;;13.77;100.00;-18398.59;5003210;28;19913;-85
2023/05/11 06:43:57;;;;;;;;;;;;;;;13.81;100.00;-18399.56;4995293;28;20283;-87
2023/05/11 06:46:22;;;;;;;;;;;;;;;13.87;100.00;-18401.06;4992643;28;20308;-85
2023/05/11 06:48:49;;;;;;;;;;;;;;;14.13;100.00;-18408.19;4999032;28;19964;-87
2023/05/11 06:51:14;;;;;;;;;;;;;;;14.14;100.00;-18408.44;4995049;28;19913;-87
2023/05/11 06:53:39;;;;;;;;;;;;;;;14.16;100.00;-18408.88;4992739;28;19914;-86
2023/05/11 06:56:05;;;;;;;;;;;;;;;14.20;100.00;-18409.97;4988893;28;20269;-85
2023/05/11 06:58:30;;;;;;;;;;;;;;;14.07;100.00;-18406.41;4990059;28;19913;-86
2023/05/11 07:00:55;;;;;;;;;;;;;;;14.08;100.00;-18406.81;4995126;28;19918;-87
2023/05/11 07:03:20;;;;;;;;;;;;;;;14.03;100.00;-18405.44;4990531;28;20458;-86
2023/05/11 07:05:45;;;;;;;;;;;;;;;14.06;100.00;-18406.25;4988020;28;19917;-87
2023/05/11 07:08:11;;;;;;;;;;;;;;;14.09;100.00;-18406.94;4995848;28;19914;-86
2023/05/11 07:10:36;;;;;;;;;;;;;;;14.19;100.00;-18409.81;4992983;28;19953;-87
2023/05/11 07:13:01;;;;;;;;;;;;;;;14.19;100.00;-18409.81;4993952;28;19916;-88
2023/05/11 07:15:26;;;;;;;;;;;;;;;14.16;100.00;-18409.00;5012789;28;19922;-87
2023/05/11 07:17:52;;;;;;;;;;;;;;;14.22;100.00;-18410.63;5010208;28;19913;-87
2023/05/11 07:20:17;;;;;;;;;;;;;;;14.16;100.00;-18409.00;4997560;28;19917;-87
2023/05/11 07:22:42;;;;;;;;;;;;;;;14.23;100.00;-18410.91;4999329;28;19914;-86
2023/05/11 07:25:10;;;;;;;;;;;;;;;14.40;100.00;-18415.28;4993094;28;19928;-88
2023/05/11 07:27:36;;;;;;;;;;;;;;;14.31;100.00;-18412.84;4999449;28;20197;-85
2023/05/11 07:30:02;;;;;;;;;;;;;;;14.32;100.00;-18413.09;4975079;28;20020;-87
2023/05/11 07:32:27;;;;;;;;;;;;;;;14.32;100.00;-18413.09;5001290;28;19918;-86
2023/05/11 07:34:53;;;;;;;;;;;;;;;14.32;100.00;-18413.25;4991414;28;19920;-87
2023/05/11 07:37:18;;;;;;;;;;;;;;;14.64;100.00;-18421.72;4989051;28;19967;-86
2023/05/11 07:39:43;;;;;;;;;;;;;;;14.48;100.00;-18417.50;4988477;28;19922;-87
2023/05/11 07:42:08;;;;;;;;;;;;;;;14.55;100.00;-18419.41;4992296;28;20313;-86
2023/05/11 07:44:34;;;;;;;;;;;;;;;14.66;100.00;-18422.28;4991692;28;20449;-85
2023/05/11 07:46:59;;;;;;;;;;;;;;;14.69;100.00;-18423.09;4993977;28;20343;-87
2023/05/11 07:49:24;;;;;;;;;;;;;;;14.73;100.00;-18424.06;5008538;28;19952;-86
2023/05/11 07:51:51;;;;;;;;;;;;;;;14.85;100.00;-18427.47;4992901;28;19913;-87
2023/05/11 07:54:19;;;;;;;;;;;;;;;14.85;100.00;-18427.34;4990999;28;19918;-86
2023/05/11 07:56:45;;;;;;;;;;;;;;;14.87;100.00;-18427.91;4994769;28;19920;-87
2023/05/11 07:59:10;;;;;;;;;;;;;;;14.97;100.00;-18430.63;5005251;28;19918;-87
2023/05/11 08:01:35;;;;;;;;;;;;;;;15.00;100.00;-18431.31;4996752;28;19917;-86
2023/05/11 08:04:01;;;;;;;;;;;;;;;15.00;100.00;-18431.31;4996411;28;19917;-87
2023/05/11 08:06:26;;;;;;;;;;;;;;;15.04;100.00;-18432.53;4991819;28;20377;-90
2023/05/11 08:08:51;;;;;;;;;;;;;;;15.10;100.00;-18434.19;4996688;28;20273;-87
2023/05/11 08:11:16;;;;;;;;;;;;;;;15.32;100.00;-18439.94;4977316;28;20311;-87
2023/05/11 08:13:42;;;;;;;;;;;;;;;15.30;100.00;-18439.38;5004921;28;19933;-86
2023/05/11 08:16:07;;;;;;;;;;;;;;;15.33;100.00;-18440.22;4991573;28;19913;-86
2023/05/11 08:18:32;;;;;;;;;;;;;;;15.27;100.00;-18438.56;4991551;28;19920;-86
2023/05/11 08:20:58;;;;;;;;;;;;;;;15.47;100.00;-18443.91;4989366;28;20351;-87
2023/05/11 08:23:23;;;;;;;;;;;;;;;15.45;100.00;-18443.50;5004874;28;20340;-87
2023/05/11 08:25:50;;;;;;;;;;;;;;;15.35;100.00;-18440.88;4979385;28;20347;-86
2023/05/11 08:28:15;;;;;;;;;;;;;;;15.46;100.00;-18443.63;4983065;28;19917;-86
2023/05/11 08:30:41;;;;;;;;;;;;;;;15.35;100.00;-18440.88;4983958;28;19918;-85
2023/05/11 08:33:07;;;;;;;;;;;;;;;15.57;100.00;-18446.78;5003807;28;19926;-87
2023/05/11 08:35:32;;;;;;;;;;;;;;;15.61;100.00;-18447.59;4980279;28;19918;-86
2023/05/11 08:37:57;;;;;;;;;;;;;;;15.61;100.00;-18447.59;4978134;28;19921;-85
2023/05/11 08:40:25;;;;;;;;;;;;;;;15.65;100.00;-18448.69;4984238;28;19922;-86
2023/05/11 08:42:52;;;;;;;;;;;;;;;15.78;100.00;-18452.25;4980595;28;19918;-87
2023/05/11 08:45:18;;;;;;;;;;;;;;;15.69;100.00;-18449.78;4986063;28;20009;-86
2023/05/11 08:47:44;;;;;;;;;;;;;;;15.71;100.00;-18450.47;4979025;28;19992;-86
2023/05/11 08:50:09;;;;;;;;;;;;;;;15.71;100.00;-18450.34;4993402;28;19979;-86
2023/05/11 08:52:34;;;;;;;;;;;;;;;15.64;100.00;-18448.56;4982291;28;20488;-86
2023/05/11 08:55:00;;;;;;;;;;;;;;;15.61;100.00;-18447.72;4973856;28;19918;-87
2023/05/11 08:57:27;;;;;;;;;;;;;;;15.79;100.00;-18452.53;4976661;28;19929;-87
2023/05/11 08:59:53;;;;;;;;;;;;;;;15.90;100.00;-18455.53;4979550;28;20275;-87
2023/05/11 09:02:18;;;;;;;;;;;;;;;15.97;100.00;-18457.31;4982452;28;19929;-86
2023/05/11 09:04:44;;;;;;;;;;;;;;;16.14;100.00;-18461.81;4979908;28;19929;-87
2023/05/11 09:07:14;;;;;;;;;;;;;;;16.34;100.00;-18467.28;4977532;28;19925;-88
2023/05/11 09:09:40;;;;;;;;;;;;;;;16.34;100.00;-18467.28;4985593;28;19992;-87
2023/05/11 09:12:06;;;;;;;;;;;;;;;16.35;100.00;-18467.41;4980120;28;19924;-87
2023/05/11 09:14:32;;;;;;;;;;;;;;;16.28;100.00;-18465.63;4998162;28;19921;-87
2023/05/11 09:16:57;;;;;;;;;;;;;;;16.43;100.00;-18469.75;4978981;28;20134;-87
2023/05/11 09:19:22;;;;;;;;;;;;;;;16.63;100.00;-18475.06;4973824;28;20461;-87
2023/05/11 09:21:48;;;;;;;;;;;;;;;16.66;100.00;-18475.75;4979988;28;19918;-87
2023/05/11 09:24:13;;;;;;;;;;;;;;;16.86;100.00;-18481.22;4976041;28;19926;-87
2023/05/11 09:26:38;;;;;;;;;;;;;;;16.91;100.00;-18482.59;4975515;28;20487;-87
2023/05/11 09:29:03;;;;;;;;;;;;;;;17.03;100.00;-18485.59;4976396;28;20270;-87
2023/05/11 09:31:36;;;;;;;;;;;;;;;17.04;100.00;-18485.88;4993223;28;19952;-87
2023/05/11 09:34:17;;;;;;;;;;;;;;;16.92;100.00;-18482.88;4997201;28;19957;-87
2023/05/11 09:36:44;;;;;;;;;;;;;;;17.05;100.00;-18486.13;4992182;28;19937;-88
2023/05/11 09:39:09;;;;;;;;;;;;;;;16.97;100.00;-18484.09;4981345;28;20296;-88
2023/05/11 09:41:35;;;;;;;;;;;;;;;17.03;100.00;-18485.59;4976068;28;19938;-87
2023/05/11 09:44:04;;;;;;;;;;;;;;;16.92;100.00;-18482.72;4978147;28;19949;-88
2023/05/11 09:46:29;;;;;;;;;;;;;;;17.02;100.00;-18485.44;4984120;28;19924;-88
2023/05/11 09:49:01;;;;;;;;;;;;;;;17.25;100.00;-18491.47;4990048;28;19918;-87
2023/05/11 09:51:30;;;;;;;;;;;;;;;17.56;100.00;-18499.78;4975481;28;19945;-88
2023/05/11 09:53:56;;;;;;;;;;;;;;;17.42;100.00;-18495.97;4979052;28;19929;-88
2023/05/11 09:56:22;;;;;;;;;;;;;;;17.60;100.00;-18501.00;4978021;28;20369;-88
2023/05/11 09:58:49;;;;;;;;;;;;;;;17.74;100.00;-18504.69;4973636;28;19948;-88
2023/05/11 10:01:15;;;;;;;;;;;;;;;17.64;100.00;-18501.84;4984517;28;19922;-88
2023/05/11 10:03:50;;;;;;;;;;;;;;;17.51;100.00;-18498.44;4972555;28;19917;-88
2023/05/11 10:06:16;;;;;;;;;;;;;;;17.46;100.00;-18497.06;4980533;28;19929;-87
2023/05/11 10:08:41;;;;;;;;;;;;;;;17.54;100.00;-18499.38;4982889;28;19922;-87
2023/05/11 10:11:07;;;;;;;;;;;;;;;17.56;100.00;-18499.94;4985553;28;20170;-87
2023/05/11 10:13:33;;;;;;;;;;;;;;;17.63;100.00;-18501.56;4978804;28;19933;-88
2023/05/11 10:16:02;;;;;;;;;;;;;;;17.56;100.00;-18499.78;4983304;28;19943;-88
2023/05/11 10:18:27;;;;;;;;;;;;;;;17.60;100.00;-18501.00;4980393;28;19972;-88
2023/05/11 10:20:53;;;;;;;;;;;;;;;17.68;100.00;-18502.94;4982017;28;19965;-88
2023/05/11 10:23:19;;;;;;;;;;;;;;;17.74;100.00;-18504.69;4983988;28;19917;-88
2023/05/11 10:25:45;;;;;;;;;;;;;;;17.70;100.00;-18503.63;4981301;28;19933;-88
2023/05/11 10:28:10;;;;;;;;;;;;;;;17.70;100.00;-18503.47;4993381;28;19918;-87
2023/05/11 10:30:36;;;;;;;;;;;;;;;17.96;100.00;-18510.44;4976699;28;19926;-88
2023/05/11 10:33:01;;;;;;;;;;;;;;;17.87;100.00;-18508.13;4974277;28;19918;-88
2023/05/11 10:35:27;;;;;;;;;;;;;;;18.10;100.00;-18514.25;4972152;28;20021;-88
2023/05/11 10:37:52;;;;;;;;;;;;;;;18.13;100.00;-18515.06;4980219;28;19917;-87
2023/05/11 10:40:18;;;;;;;;;;;;;;;18.08;100.00;-18513.72;4977515;28;19928;-88
2023/05/11 10:43:03;;;;;;;;;;;;;;;18.14;100.00;-18515.34;4978647;28;20405;-88
2023/05/11 10:45:37;;;;;;;;;;;;;;;18.02;100.00;-18512.06;4979926;28;19917;-88
2023/05/11 10:48:21;;;;;;;;;;;;;;;18.06;100.00;-18513.03;4978233;28;19921;-88
2023/05/11 10:50:55;;;;;;;;;;;;;;;18.06;100.00;-18513.16;4987171;28;19999;-88
2023/05/11 10:53:36;;;;;;;;;;;;;;;17.87;100.00;-18508.13;4975042;28;19940;-88
2023/05/11 10:56:01;;;;;;;;;;;;;;;18.18;100.00;-18516.44;4988356;28;20024;-87
2023/05/11 10:58:56;;;;;;;;;;;;;;;18.09;100.00;-18513.97;4989814;28;19960;-87
2023/05/11 11:01:27;;;;;;;;;;;;;;;17.96;100.00;-18510.44;4940087;28;20477;-88
2023/05/11 11:03:57;;;;;;;;;;;;;;;18.01;100.00;-18511.81;4988763;28;19937;-87
2023/05/11 11:06:30;;;;;;;;;;;;;;;18.08;100.00;-18513.72;4981583;28;20301;-88
2023/05/11 11:08:59;;;;;;;;;;;;;;;18.11;100.00;-18514.53;4992590;28;20004;-88
2023/05/11 11:11:32;;;;;;;;;;;;;;;18.03;100.00;-18512.47;5009765;28;20317;-87
2023/05/11 11:14:01;;;;;;;;;;;;;;;18.00;100.00;-18511.53;5010382;28;19967;-87
2023/05/11 11:16:27;;;;;;;;;;;;;;;17.90;100.00;-18508.94;4990601;28;19918;-87
2023/05/11 11:19:12;;;;;;;;;;;;;;;17.83;100.00;-18506.88;4986130;28;20413;-86
2023/05/11 11:21:38;;;;;;;;;;;;;;;17.72;100.00;-18504.03;4987344;28;19922;-87
2023/05/11 11:24:03;;;;;;;;;;;;;;;17.74;100.00;-18504.69;5003153;28;19955;-87
2023/05/11 11:27:01;;;;;;;;;;;;;;;17.64;100.00;-18501.97;4998836;28;20399;-86
2023/05/11 11:29:27;;;;;;;;;;;;;;;17.59;100.00;-18500.59;4935461;28;20004;-87
2023/05/11 11:31:52;;;;;;;;;;;;;;;17.42;100.00;-18496.09;4997290;28;20362;-88
2023/05/11 11:34:24;;;;;;;;;;;;;;;17.28;100.00;-18492.41;4986878;28;19925;-87
2023/05/11 11:36:55;;;;;;;;;;;;;;;17.19;100.00;-18489.97;4976420;28;19925;-86
2023/05/11 11:39:20;;;;;;;;;;;;;;;17.28;100.00;-18492.41;4979045;28;20016;-86
2023/05/11 11:41:57;;;;;;;;;;;;;;;17.12;100.00;-18488.06;4980993;28;20032;-87
2023/05/11 11:44:23;;;;;;;;;;;;;;;17.12;100.00;-18488.06;4982256;28;20000;-88
2023/05/11 11:47:08;;;;;;;;;;;;;;;17.09;100.00;-18487.22;4982658;28;20000;-87
2023/05/11 11:49:34;;;;;;;;;;;;;;;16.98;100.00;-18484.22;4971651;28;19924;-86
2023/05/11 11:52:01;;;;;;;;;;;;;;;16.94;100.00;-18483.13;4984844;28;20016;-87
2023/05/11 11:54:35;;;;;;;;;;;;;;;16.91;100.00;-18482.59;4987118;28;19928;-88
2023/05/11 11:57:01;;;;;;;;;;;;;;;16.99;100.00;-18484.63;4987551;28;19925;-87
2023/05/11 11:59:27;;;;;;;;;;;;;;;16.96;100.00;-18483.69;4986612;28;19921;-89
2023/05/11 12:01:54;;;;;;;;;;;;;;;16.88;100.00;-18481.63;4989126;28;20408;-88
2023/05/11 12:04:48;;;;;;;;;;;;;;;16.95;100.00;-18483.53;4966517;28;19917;-88
2023/05/11 12:07:14;;;;;;;;;;;;;;;16.94;100.00;-18483.13;4943902;28;19925;-88
2023/05/11 12:09:40;;;;;;;;;;;;;;;16.97;100.00;-18484.09;4869288;29;19971;-88
2023/05/11 12:12:05;;;;;;;;;;;;;;;16.94;100.00;-18483.13;4887391;29;20021;-87
2023/05/11 12:14:31;;;;;;;;;;;;;;;16.94;100.00;-18483.13;4889066;29;19935;-87
2023/05/11 12:17:00;;;;;;;;;;;;;;;16.87;100.00;-18481.34;4886393;29;19963;-88
2023/05/11 12:19:25;;;;;;;;;;;;;;;16.81;100.00;-18479.72;4887147;29;20007;-87
2023/05/11 12:21:50;;;;;;;;;;;;;;;16.87;100.00;-18481.34;4888095;29;20021;-87
2023/05/11 12:24:16;;;;;;;;;;;;;;;16.84;100.00;-18480.69;4887342;29;20260;-89
2023/05/11 12:26:42;;;;;;;;;;;;;;;17.00;100.00;-18484.91;4887326;29;19920;-88